Time;durP1;ratioP1;P1;durP2;ratioP2;P2;SDS_P1;SDS_P2;PMS_P1;PMS_P2;Temp;Humidity;BMP_temperature;BMP_pressure;BME280_temperature;BME280_humidity;BME280_pressure;Samples;Min_cycle;Max_cycle;Signal;HPM_P1;HPM_P2
2021/08/20 00:00:38;;;;;;;23.80;13.88;;;;;;;14.13;85.61;101435.78;5011833;28;20394;-38
2021/08/20 00:03:03;;;;;;;25.52;15.05;;;;;;;14.17;85.66;101439.81;5012119;28;20037;-38
2021/08/20 00:05:29;;;;;;;25.83;14.57;;;;;;;14.20;85.68;101434.84;5011030;28;20537;-39
2021/08/20 00:07:54;;;;;;;27.45;15.18;;;;;;;14.25;85.91;101424.25;5012140;28;20461;-39
2021/08/20 00:10:19;;;;;;;31.65;17.35;;;;;;;14.30;86.35;101423.69;5011772;28;20076;-39
2021/08/20 00:12:45;;;;;;;24.38;14.98;;;;;;;14.35;85.97;101425.81;5011729;28;20057;-38
2021/08/20 00:15:11;;;;;;;25.63;15.10;;;;;;;14.40;85.97;101417.94;5011172;28;20418;-38
2021/08/20 00:17:36;;;;;;;24.45;14.80;;;;;;;14.43;85.71;101413.00;5012024;28;20030;-39
2021/08/20 00:20:02;;;;;;;26.10;14.95;;;;;;;14.47;85.98;101413.44;5011627;28;20032;-39
2021/08/20 00:22:27;;;;;;;29.25;15.40;;;;;;;14.46;86.24;101411.78;5011738;28;20049;-38
2021/08/20 00:24:53;;;;;;;24.17;14.38;;;;;;;14.48;86.43;101409.69;5011346;28;20049;-38
2021/08/20 00:27:18;;;;;;;29.75;14.52;;;;;;;14.50;86.51;101408.47;5011820;28;20163;-38
2021/08/20 00:29:44;;;;;;;31.30;14.43;;;;;;;14.54;86.94;101410.84;5011426;28;20478;-38
2021/08/20 00:32:09;;;;;;;31.17;14.52;;;;;;;14.58;86.95;101422.94;5010282;28;20034;-38
2021/08/20 00:34:34;;;;;;;30.80;14.57;;;;;;;14.65;87.01;101415.72;5011608;28;20104;-38
2021/08/20 00:37:00;;;;;;;24.95;13.93;;;;;;;14.67;86.83;101414.50;5011676;28;20038;-40
2021/08/20 00:39:25;;;;;;;27.08;13.55;;;;;;;14.71;86.74;101415.78;5012042;28;20058;-39
2021/08/20 00:41:51;;;;;;;31.15;13.80;;;;;;;14.76;87.03;101417.06;5031381;28;20032;-39
2021/08/20 00:44:17;;;;;;;34.05;14.80;;;;;;;14.78;87.10;101418.56;5031086;28;20044;-40
2021/08/20 00:46:43;;;;;;;32.30;14.65;;;;;;;14.84;87.23;101422.34;5033034;28;20065;-42
2021/08/20 00:49:12;;;;;;;32.58;14.18;;;;;;;14.88;87.01;101420.94;5032713;28;20064;-39
2021/08/20 00:51:38;;;;;;;29.52;14.20;;;;;;;14.92;86.96;101416.78;5015460;28;20106;-38
2021/08/20 00:54:08;;;;;;;23.20;14.10;;;;;;;14.96;87.19;101411.81;5015363;28;20061;-39
2021/08/20 00:56:34;;;;;;;25.85;14.35;;;;;;;15.00;87.22;101407.66;5013521;28;20014;-39
2021/08/20 00:59:01;;;;;;;25.65;13.90;;;;;;;15.00;86.96;101397.66;5014810;28;20026;-39
2021/08/20 01:01:26;;;;;;;25.23;12.75;;;;;;;15.01;87.05;101396.63;5015100;28;20080;-39
2021/08/20 01:03:51;;;;;;;28.67;13.85;;;;;;;15.03;87.34;101397.25;5015232;28;20033;-39
2021/08/20 01:06:17;;;;;;;24.33;13.20;;;;;;;15.03;87.34;101388.28;5015160;28;20054;-39
2021/08/20 01:08:42;;;;;;;24.08;13.10;;;;;;;15.05;87.24;101389.78;5015172;28;20022;-39
2021/08/20 01:11:10;;;;;;;28.25;13.50;;;;;;;15.07;87.51;101393.13;5014256;28;20034;-39
2021/08/20 01:13:36;;;;;;;;;;;;;;;15.10;87.40;101391.91;5015119;28;20038;-39
2021/08/20 01:16:02;;;;;;;29.25;13.10;;;;;;;15.11;87.58;101389.00;5014908;28;19909;-39
2021/08/20 01:18:36;;;;;;;32.17;13.00;;;;;;;15.11;87.45;101383.56;5013195;28;20026;-38
2021/08/20 01:21:09;;;;;;;27.77;13.73;;;;;;;15.14;87.33;101391.31;5013842;28;20029;-39
2021/08/20 01:23:35;;;;;;;27.55;12.98;;;;;;;15.17;87.22;101397.38;5014124;28;20030;-39
2021/08/20 01:26:00;;;;;;;24.15;14.13;;;;;;;15.18;87.08;101389.03;5014463;28;20034;-39
2021/08/20 01:28:26;;;;;;;30.80;13.55;;;;;;;15.20;87.35;101394.25;5014464;28;20030;-39
2021/08/20 01:30:57;;;;;;;24.20;12.63;;;;;;;15.22;87.08;101394.88;5013990;28;20026;-39
2021/08/20 01:33:23;;;;;;;28.95;12.43;;;;;;;15.23;87.10;101399.28;5014289;28;20066;-40
2021/08/20 01:35:48;;;;;;;24.92;12.55;;;;;;;15.24;86.96;101399.06;5014259;28;20551;-39
2021/08/20 01:38:13;;;;;;;25.65;12.55;;;;;;;15.25;86.94;101392.63;5014257;28;20489;-39
2021/08/20 01:40:39;;;;;;;22.30;12.40;;;;;;;15.26;86.96;101396.16;5013089;28;20398;-39
2021/08/20 01:43:04;;;;;;;27.83;12.15;;;;;;;15.26;86.85;101390.75;5012562;28;20581;-39
2021/08/20 01:45:29;;;;;;;22.40;11.73;;;;;;;15.23;87.07;101394.69;5013690;28;20474;-39
2021/08/20 01:47:55;;;;;;;25.52;12.27;;;;;;;15.22;87.21;101400.28;5013759;28;20497;-39
2021/08/20 01:50:20;;;;;;;23.10;13.13;;;;;;;15.22;87.32;101394.88;5014099;28;20076;-38
2021/08/20 01:52:45;;;;;;;29.48;12.98;;;;;;;15.23;87.52;101393.84;5013961;28;20101;-39
2021/08/20 01:55:11;;;;;;;24.80;13.20;;;;;;;15.24;88.06;101387.38;5013921;28;20037;-39
2021/08/20 01:57:44;;;;;;;24.52;14.07;;;;;;;15.25;87.94;101392.63;5012880;28;20038;-39
2021/08/20 02:00:10;;;;;;;27.77;13.57;;;;;;;15.28;88.46;101394.94;5007659;28;20072;-39
2021/08/20 02:02:35;;;;;;;27.73;13.40;;;;;;;15.29;88.14;101398.47;5013543;28;20076;-40
2021/08/20 02:05:01;;;;;;;31.80;13.60;;;;;;;15.32;88.24;101400.78;5013916;28;20180;-39
2021/08/20 02:07:26;;;;;;;28.23;13.13;;;;;;;15.32;88.28;101401.63;5013388;28;20045;-39
2021/08/20 02:09:51;;;;;;;26.23;13.35;;;;;;;15.34;88.21;101401.44;5011997;28;20025;-40
2021/08/20 02:12:17;;;;;;;27.45;13.65;;;;;;;15.34;88.29;101399.53;5013454;28;20030;-39
2021/08/20 02:14:42;;;;;;;31.88;14.48;;;;;;;15.37;88.32;101403.72;5013456;28;20400;-39
2021/08/20 02:17:07;;;;;;;27.85;13.90;;;;;;;15.38;88.36;101394.56;5013430;28;20403;-39
2021/08/20 02:19:34;;;;;;;37.10;14.20;;;;;;;15.39;88.38;101401.66;5013277;28;20429;-39
2021/08/20 02:21:59;;;;;;;23.25;14.18;;;;;;;15.40;88.39;101395.19;5013188;28;20382;-39
2021/08/20 02:24:25;;;;;;;27.80;12.75;;;;;;;15.42;88.33;101395.84;5013263;28;20044;-39
2021/08/20 02:26:50;;;;;;;32.15;14.02;;;;;;;15.45;88.28;101398.13;5013382;28;20025;-39
2021/08/20 02:29:15;;;;;;;32.85;14.13;;;;;;;15.44;88.49;101399.19;5013054;28;20117;-39
2021/08/20 02:31:41;;;;;;;27.73;13.45;;;;;;;15.46;88.47;101399.84;5012354;28;20037;-38
2021/08/20 02:34:06;;;;;;;31.73;13.88;;;;;;;15.49;88.76;101399.44;5013417;28;20026;-38
2021/08/20 02:36:31;;;;;;;33.30;13.45;;;;;;;15.50;88.67;101384.81;5013334;28;20121;-38
2021/08/20 02:38:57;;;;;;;29.42;13.57;;;;;;;15.55;88.75;101390.47;5012553;28;20085;-38
2021/08/20 02:41:24;;;;;;;27.42;12.05;;;;;;;15.55;88.50;101382.34;5012666;28;20053;-39
2021/08/20 02:43:49;;;;;;;29.25;13.15;;;;;;;15.59;88.56;101391.75;5012423;28;20488;-39
2021/08/20 02:46:15;;;;;;;24.77;11.90;;;;;;;15.63;88.48;101388.63;5012630;28;20022;-39
2021/08/20 02:48:42;;;;;;;32.25;12.20;;;;;;;15.65;88.55;101389.28;5012969;28;20113;-38
2021/08/20 02:51:07;;;;;;;29.77;12.77;;;;;;;15.67;88.56;101392.63;5012291;28;20381;-38
2021/08/20 02:53:33;;;;;;;31.83;14.05;;;;;;;15.69;88.45;101387.84;5012957;28;20030;-38
2021/08/20 02:55:58;;;;;;;32.38;16.17;;;;;;;15.70;88.62;101384.94;5012738;28;20116;-38
2021/08/20 02:58:24;;;;;;;32.70;15.00;;;;;;;15.71;88.54;101383.06;5011846;28;20044;-38
2021/08/20 03:00:49;;;;;;;35.88;16.02;;;;;;;15.71;88.45;101377.63;5012352;28;20382;-39
2021/08/20 03:03:14;;;;;;;36.15;15.98;;;;;;;15.70;88.55;101373.25;5012647;28;20482;-40
2021/08/20 03:05:40;;;;;;;33.75;16.33;;;;;;;15.70;88.48;101376.81;5012357;28;20029;-37
2021/08/20 03:08:05;;;;;;;41.65;17.90;;;;;;;15.69;88.82;101374.28;5012604;28;20031;-39
2021/08/20 03:10:31;;;;;;;41.05;17.13;;;;;;;15.66;88.72;101369.22;5011916;28;20034;-39
2021/08/20 03:12:56;;;;;;;31.88;17.38;;;;;;;15.65;88.65;101381.13;5012406;28;20088;-41
2021/08/20 03:15:21;;;;;;;35.35;17.45;;;;;;;15.59;88.73;101375.47;5012366;28;20037;-38
2021/08/20 03:17:47;;;;;;;36.63;17.73;;;;;;;15.58;88.70;101379.22;5012248;28;20034;-39
2021/08/20 03:20:12;;;;;;;46.72;19.50;;;;;;;15.54;88.81;101375.25;5012295;28;20037;-38
2021/08/20 03:22:37;;;;;;;46.80;19.83;;;;;;;15.53;89.04;101372.72;5012540;28;20397;-38
2021/08/20 03:25:03;;;;;;;47.67;19.75;;;;;;;15.50;89.21;101373.97;5012140;28;20034;-38
2021/08/20 03:27:29;;;;;;;42.25;19.08;;;;;;;15.47;89.00;101377.09;5012397;28;20080;-40
2021/08/20 03:29:54;;;;;;;47.10;21.15;;;;;;;15.46;89.21;101378.13;5011957;28;20105;-38
2021/08/20 03:32:19;;;;;;;48.28;21.55;;;;;;;15.45;89.29;101390.00;5011938;28;20068;-38
2021/08/20 03:34:45;;;;;;;45.83;20.33;;;;;;;15.46;89.38;101380.84;5012530;28;20045;-38
2021/08/20 03:37:10;;;;;;;51.95;22.73;;;;;;;15.45;89.34;101376.44;5011630;28;20022;-38
2021/08/20 03:39:35;;;;;;;48.83;21.40;;;;;;;15.48;89.31;101384.19;5011437;28;20124;-38
2021/08/20 03:42:01;;;;;;;46.00;20.88;;;;;;;15.48;89.03;101389.63;5011852;28;20036;-38
2021/08/20 03:44:26;;;;;;;46.65;22.33;;;;;;;15.50;89.29;101383.97;5011713;28;20029;-39
2021/08/20 03:46:52;;;;;;;47.40;22.23;;;;;;;15.49;89.29;101385.88;5011914;28;20025;-37
2021/08/20 03:49:17;;;;;;;48.58;21.70;;;;;;;15.48;89.11;101389.63;5011864;28;20026;-39
2021/08/20 03:51:42;;;;;;;52.88;22.10;;;;;;;15.47;89.22;101381.69;4996506;28;20080;-39
2021/08/20 03:54:08;;;;;;;44.45;21.10;;;;;;;15.45;88.92;101390.00;5011982;28;20411;-39
2021/08/20 03:56:33;;;;;;;44.10;21.45;;;;;;;15.42;89.15;101384.16;5012031;28;20545;-39
2021/08/20 03:58:58;;;;;;;47.13;21.45;;;;;;;15.39;89.07;101385.38;5012490;28;20113;-39
2021/08/20 04:01:25;;;;;;;50.78;21.40;;;;;;;15.38;89.36;101389.16;5011669;28;20112;-39
2021/08/20 04:03:50;;;;;;;45.80;20.90;;;;;;;15.34;89.38;101396.00;5027703;28;20064;-38
2021/08/20 04:06:15;;;;;;;47.55;20.92;;;;;;;15.31;89.11;101393.69;5031504;28;20057;-37
2021/08/20 04:08:41;;;;;;;47.05;21.20;;;;;;;15.26;89.16;101394.28;5031617;28;20026;-38
2021/08/20 04:11:13;;;;;;;55.30;21.40;;;;;;;15.27;89.28;101392.41;5014129;28;20038;-37
2021/08/20 04:13:39;;;;;;;48.35;22.27;;;;;;;15.28;89.66;101388.69;5011440;28;20433;-39
2021/08/20 04:16:05;;;;;;;49.28;21.38;;;;;;;15.29;89.69;101395.75;5011793;28;20092;-38
2021/08/20 04:18:30;;;;;;;46.42;21.77;;;;;;;15.28;89.74;101391.38;5011528;28;20059;-38
2021/08/20 04:20:56;;;;;;;44.00;20.20;;;;;;;15.27;89.70;101397.81;5011634;28;20076;-40
2021/08/20 04:23:21;;;;;;;44.22;20.05;;;;;;;15.26;89.50;101398.88;5015436;28;20176;-40
2021/08/20 04:25:46;;;;;;;51.83;20.33;;;;;;;15.26;89.54;101393.44;5015339;28;20401;-37
2021/08/20 04:28:12;;;;;;;44.28;19.92;;;;;;;15.27;89.65;101398.69;5016703;28;20465;-38
2021/08/20 04:30:37;;;;;;;41.10;19.75;;;;;;;15.30;89.65;101406.41;5013941;28;20411;-37
2021/08/20 04:33:03;;;;;;;47.17;19.55;;;;;;;15.33;89.88;101403.31;5015021;28;20094;-39
2021/08/20 04:35:29;;;;;;;33.28;17.00;;;;;;;15.36;89.69;101407.50;5013549;28;20118;-39
2021/08/20 04:37:54;;;;;;;47.25;20.15;;;;;;;15.39;89.60;101411.69;5015367;28;20018;-39
2021/08/20 04:40:20;;;;;;;39.33;18.55;;;;;;;15.42;89.63;101409.41;5015063;28;20072;-39
2021/08/20 04:42:45;;;;;;;35.38;17.52;;;;;;;15.43;89.67;101408.38;5014988;28;20057;-39
2021/08/20 04:45:15;;;;;;;39.03;17.08;;;;;;;15.45;89.54;101421.72;5015320;28;20453;-39
2021/08/20 04:47:41;;;;;;;31.35;15.43;;;;;;;15.48;89.62;101427.59;5015446;28;20029;-39
2021/08/20 04:50:07;;;;;;;30.02;13.68;;;;;;;15.53;89.75;101422.41;5015292;28;20032;-39
2021/08/20 04:52:34;;;;;;;27.88;12.75;;;;;;;15.60;90.00;101419.72;5014817;28;20030;-38
2021/08/20 04:54:59;;;;;;;24.20;10.77;;;;;;;15.68;89.81;101418.72;5014703;28;20026;-38
2021/08/20 04:57:24;;;;;;;26.90;9.95;;;;;;;15.70;89.72;101422.09;5014543;28;20080;-38
2021/08/20 04:59:50;;;;;;;22.45;9.25;;;;;;;15.74;89.36;101416.06;5014154;28;20038;-38
2021/08/20 05:02:15;;;;;;;19.27;7.53;;;;;;;15.80;89.14;101419.84;5014590;28;20038;-39
2021/08/20 05:04:40;;;;;;;18.30;6.20;;;;;;;15.83;89.20;101419.44;5014101;28;20112;-38
2021/08/20 05:07:06;;;;;;;13.15;5.95;;;;;;;15.88;88.96;101421.56;5014217;28;20441;-40
2021/08/20 05:09:32;;;;;;;13.27;6.70;;;;;;;15.89;88.70;101424.06;5014672;28;20040;-38
2021/08/20 05:11:59;;;;;;;13.77;8.23;;;;;;;15.89;88.57;101423.22;5014217;28;20029;-39
2021/08/20 05:14:25;;;;;;;15.15;7.30;;;;;;;15.89;88.83;101426.78;5014745;28;20032;-38
2021/08/20 05:16:50;;;;;;;14.50;6.68;;;;;;;15.88;88.90;101433.25;5007757;28;20030;-40
2021/08/20 05:19:15;;;;;;;16.05;6.25;;;;;;;15.90;88.92;101439.28;5012856;28;20117;-40
2021/08/20 05:21:41;;;;;;;22.25;6.70;;;;;;;15.92;88.99;101436.38;5012715;28;20140;-40
2021/08/20 05:24:06;;;;;;;11.77;5.30;;;;;;;15.96;88.74;101440.38;5013165;28;20506;-40
2021/08/20 05:26:31;;;;;;;11.00;5.93;;;;;;;15.99;88.90;101443.53;5012499;28;20022;-40
2021/08/20 05:28:57;;;;;;;14.43;5.72;;;;;;;16.05;88.63;101449.19;5008446;28;20030;-39
2021/08/20 05:31:22;;;;;;;11.70;5.60;;;;;;;16.07;88.51;101447.09;5005870;28;20033;-40
2021/08/20 05:33:47;;;;;;;10.00;4.55;;;;;;;16.11;88.28;101457.34;5012892;28;20048;-40
2021/08/20 05:36:13;;;;;;;18.63;5.22;;;;;;;16.16;88.26;101456.72;5013299;28;20398;-40
2021/08/20 05:38:38;;;;;;;22.27;5.13;;;;;;;16.19;88.13;101459.91;5016591;28;20534;-41
2021/08/20 05:41:04;;;;;;;11.82;4.38;;;;;;;16.22;88.30;101456.78;5013505;28;20029;-39
2021/08/20 05:43:32;;;;;;;14.20;4.22;;;;;;;16.27;87.93;101449.88;5013417;28;20120;-41
2021/08/20 05:45:57;;;;;;;11.23;4.45;;;;;;;16.32;87.70;101456.34;5012276;28;20454;-39
2021/08/20 05:48:23;;;;;;;14.45;4.47;;;;;;;16.36;87.70;101457.63;5013021;28;20037;-40
2021/08/20 05:50:48;;;;;;;11.30;4.57;;;;;;;16.41;87.55;101455.13;5013451;28;20501;-40
2021/08/20 05:53:14;;;;;;;10.90;4.22;;;;;;;16.54;87.30;101458.94;5013497;28;20107;-40
2021/08/20 05:55:39;;;;;;;11.50;4.13;;;;;;;16.63;86.72;101454.97;5012941;28;20155;-39
2021/08/20 05:58:05;;;;;;;14.20;3.83;;;;;;;17.03;85.03;101461.28;5013499;28;20488;-39
2021/08/20 06:00:31;;;;;;;5.97;3.00;;;;;;;17.52;82.76;101457.25;5012940;28;20089;-40
2021/08/20 06:02:56;;;;;;;11.55;2.55;;;;;;;18.12;80.73;101461.69;5012095;28;20486;-40
2021/08/20 06:05:21;;;;;;;5.35;2.50;;;;;;;18.78;79.11;101466.75;5013601;28;20477;-40
2021/08/20 06:07:47;;;;;;;5.63;2.30;;;;;;;19.53;75.70;101474.06;5012151;28;20026;-40
2021/08/20 06:10:12;;;;;;;6.22;2.35;;;;;;;20.33;72.90;101475.88;5012262;28;20117;-40
2021/08/20 06:12:38;;;;;;;8.07;2.20;;;;;;;20.53;71.65;101481.88;5012896;28;20063;-39
2021/08/20 06:15:04;;;;;;;7.07;2.30;;;;;;;20.51;71.75;101483.19;5012905;28;20125;-40
2021/08/20 06:17:29;;;;;;;7.63;2.33;;;;;;;20.93;69.60;101478.59;5010996;28;20036;-39
2021/08/20 06:19:55;;;;;;;7.32;2.47;;;;;;;21.02;69.99;101476.34;5012123;28;20030;-40
2021/08/20 06:22:20;;;;;;;9.98;2.50;;;;;;;20.83;69.38;101478.31;5009897;28;20045;-41
2021/08/20 06:24:45;;;;;;;5.38;2.17;;;;;;;20.82;70.34;101485.69;5012591;28;20061;-40
2021/08/20 06:27:11;;;;;;;7.97;2.45;;;;;;;20.65;70.09;101478.41;5012696;28;20400;-40
2021/08/20 06:29:36;;;;;;;5.15;2.72;;;;;;;20.02;71.22;101476.91;5013193;28;20037;-40
2021/08/20 06:32:01;;;;;;;6.97;2.70;;;;;;;19.38;73.96;101468.13;5012057;28;20033;-40
2021/08/20 06:34:27;;;;;;;8.15;2.60;;;;;;;19.19;75.15;101478.19;5012719;28;20121;-40
2021/08/20 06:36:52;;;;;;;3.92;2.28;;;;;;;19.42;74.92;101475.66;5012210;28;20378;-40
2021/08/20 06:39:17;;;;;;;5.25;2.30;;;;;;;19.55;74.30;101484.78;5012383;28;20401;-39
2021/08/20 06:41:43;;;;;;;9.30;2.33;;;;;;;18.99;75.81;101495.56;5012490;28;20477;-39
2021/08/20 06:44:08;;;;;;;5.22;2.47;;;;;;;18.70;76.49;101485.25;5011623;28;20034;-39
2021/08/20 06:46:35;;;;;;;8.52;2.33;;;;;;;18.50;77.33;101483.47;5012544;28;20018;-39
2021/08/20 06:49:00;;;;;;;3.78;2.50;;;;;;;18.40;78.02;101492.16;5012267;28;20033;-41
2021/08/20 06:51:26;;;;;;;11.35;3.25;;;;;;;18.31;78.84;101492.63;5012345;28;20132;-40
2021/08/20 06:53:51;;;;;;;10.50;4.63;;;;;;;18.16;79.89;101485.53;5012014;28;20025;-40
2021/08/20 06:56:16;;;;;;;10.80;4.72;;;;;;;18.24;80.01;101491.81;5011597;28;20032;-40
2021/08/20 06:58:42;;;;;;;12.02;6.13;;;;;;;18.16;80.30;101496.44;5011597;28;20025;-40
2021/08/20 07:01:07;;;;;;;17.17;6.75;;;;;;;18.13;80.18;101505.03;5012005;28;20424;-40
2021/08/20 07:03:33;;;;;;;16.48;7.47;;;;;;;17.96;80.61;101503.88;5012381;28;20437;-40
2021/08/20 07:05:58;;;;;;;13.23;7.18;;;;;;;18.00;80.67;101513.28;5010601;28;20029;-40
2021/08/20 07:08:23;;;;;;;17.75;8.55;;;;;;;17.76;81.16;101504.72;5011705;28;20037;-39
2021/08/20 07:10:49;;;;;;;20.60;10.13;;;;;;;17.50;82.43;101502.06;5010949;28;20029;-39
2021/08/20 07:13:15;;;;;;;19.67;10.57;;;;;;;17.45;82.97;101510.00;5011299;28;20034;-40
2021/08/20 07:15:40;;;;;;;19.05;10.70;;;;;;;17.37;83.26;101507.50;5011727;28;20034;-39
2021/08/20 07:18:05;;;;;;;25.15;11.18;;;;;;;17.44;83.41;101502.91;5010045;28;20088;-40
2021/08/20 07:20:31;;;;;;;22.52;10.27;;;;;;;17.55;82.89;101510.44;5011646;28;20026;-40
2021/08/20 07:22:56;;;;;;;19.17;9.82;;;;;;;17.74;82.62;101504.09;5011407;28;20463;-40
2021/08/20 07:25:21;;;;;;;20.10;9.60;;;;;;;17.95;81.55;101504.91;5011413;28;20053;-40
2021/08/20 07:27:47;;;;;;;13.73;9.15;;;;;;;17.99;81.64;101509.72;5012102;28;20112;-40
2021/08/20 07:30:12;;;;;;;17.20;8.75;;;;;;;17.99;81.15;101508.88;5011932;28;20026;-40
2021/08/20 07:32:38;;;;;;;20.33;10.43;;;;;;;17.91;80.92;101504.50;5010951;28;20486;-40
2021/08/20 07:35:04;;;;;;;19.75;9.65;;;;;;;17.88;81.81;101513.13;5011557;28;20494;-41
2021/08/20 07:37:30;;;;;;;19.67;8.45;;;;;;;17.96;81.69;101503.88;5012127;28;20079;-40
2021/08/20 07:39:55;;;;;;;19.60;9.00;;;;;;;17.98;81.52;101501.75;5011794;28;20056;-40
2021/08/20 07:42:21;;;;;;;13.55;8.40;;;;;;;18.31;80.89;101514.41;5012367;28;20105;-40
2021/08/20 07:44:46;;;;;;;19.58;7.85;;;;;;;19.07;78.73;101506.19;5011816;28;20029;-40
2021/08/20 07:47:12;;;;;;;14.88;6.32;;;;;;;20.27;74.40;101510.41;5010783;28;20029;-40
2021/08/20 07:49:37;;;;;;;10.23;4.57;;;;;;;21.49;68.88;101506.50;5011863;28;20030;-40
2021/08/20 07:52:02;;;;;;;9.57;3.35;;;;;;;22.07;64.69;101505.59;5012226;28;20113;-39
2021/08/20 07:54:28;;;;;;;7.47;3.30;;;;;;;22.97;64.07;101515.00;5011991;28;20081;-39
2021/08/20 07:56:53;;;;;;;9.73;2.53;;;;;;;22.86;61.52;101521.38;5013750;28;20478;-40
2021/08/20 07:59:18;;;;;;;9.50;2.75;;;;;;;22.35;62.55;101523.16;5015534;28;21273;-38
2021/08/20 08:01:44;;;;;;;8.25;2.50;;;;;;;21.79;64.76;101519.22;5030371;28;20080;-39
2021/08/20 08:04:09;;;;;;;9.50;2.13;;;;;;;21.71;63.86;101523.16;5014752;28;20025;-39
2021/08/20 08:06:35;;;;;;;9.35;2.42;;;;;;;21.99;63.39;101529.81;5015606;28;20117;-39
2021/08/20 08:09:00;;;;;;;6.45;2.17;;;;;;;22.48;61.89;101522.88;5015439;28;20041;-39
2021/08/20 08:11:31;;;;;;;4.57;2.10;;;;;;;23.26;59.80;101522.34;5015866;28;20037;-39
2021/08/20 08:14:02;;;;;;;4.93;1.52;;;;;;;23.05;58.66;101526.69;5016045;28;20030;-39
2021/08/20 08:16:28;;;;;;;6.82;2.00;;;;;;;22.53;59.22;101533.94;5015166;28;20057;-39
2021/08/20 08:18:53;;;;;;;9.50;2.80;;;;;;;21.74;62.26;101533.63;5013769;28;20481;-39
2021/08/20 08:21:18;;;;;;;6.63;2.80;;;;;;;21.77;63.03;101532.31;5015653;28;20045;-39
2021/08/20 08:23:44;;;;;;;7.65;2.97;;;;;;;21.80;62.62;101538.16;5015602;28;20022;-39
2021/08/20 08:26:09;;;;;;;11.85;2.97;;;;;;;21.55;63.51;101540.31;5015256;28;20025;-38
2021/08/20 08:28:34;;;;;;;7.97;2.45;;;;;;;22.10;62.81;101529.75;5015241;28;20037;-39
2021/08/20 08:31:02;;;;;;;7.57;2.40;;;;;;;22.08;61.42;101536.56;5015302;28;20029;-39
2021/08/20 08:33:28;;;;;;;5.90;2.40;;;;;;;22.51;61.05;101546.22;5015595;28;20393;-39
2021/08/20 08:35:53;;;;;;;7.50;2.20;;;;;;;23.03;58.66;101545.31;5015478;28;20037;-39
2021/08/20 08:38:18;;;;;;;6.72;2.17;;;;;;;22.77;59.16;101542.06;5014768;28;20036;-40
2021/08/20 08:40:46;;;;;;;8.05;1.95;;;;;;;22.98;59.20;101537.81;5014200;28;20073;-40
2021/08/20 08:43:12;;;;;;;;;;;;;;;23.00;56.44;101541.97;5015412;28;20030;-40
2021/08/20 08:45:38;;;;;;;6.88;1.77;;;;;;;22.74;58.47;101539.81;5014282;28;19959;-39
2021/08/20 08:48:07;;;;;;;7.25;2.03;;;;;;;23.30;58.16;101545.47;5014742;28;20046;-40
2021/08/20 08:50:33;;;;;;;4.72;1.50;;;;;;;23.32;57.74;101546.88;5013489;28;20378;-39
2021/08/20 08:52:59;;;;;;;9.35;1.77;;;;;;;23.82;58.16;101548.75;5014580;28;20025;-39
2021/08/20 08:55:25;;;;;;;4.20;1.50;;;;;;;23.93;55.19;101548.91;5009312;28;20036;-39
2021/08/20 08:57:50;;;;;;;4.57;1.65;;;;;;;23.40;55.27;101554.69;5013598;28;20092;-39
2021/08/20 09:00:29;;;;;;;2.58;1.40;;;;;;;22.56;57.64;101546.31;5011710;28;20076;-41
2021/08/20 09:02:54;;;;;;;4.63;1.50;;;;;;;22.11;59.36;101550.59;5014533;28;20033;-39
2021/08/20 09:05:19;;;;;;;2.58;1.30;;;;;;;21.97;60.58;101553.88;5014834;28;20040;-39
2021/08/20 09:07:50;;;;;;;3.25;1.48;;;;;;;21.50;61.40;101554.72;5020523;28;20026;-39
2021/08/20 09:10:18;;;;;;;6.72;1.70;;;;;;;20.98;63.37;101551.75;5014032;28;20041;-39
2021/08/20 09:12:49;;;;;;;5.32;1.83;;;;;;;20.34;65.48;101554.09;5014767;28;20477;-39
2021/08/20 09:15:14;;;;;;;4.90;2.00;;;;;;;20.27;66.34;101548.69;5014043;28;20113;-40
2021/08/20 09:17:53;;;;;;;5.25;2.00;;;;;;;20.18;67.84;101556.38;5012104;28;20038;-40
2021/08/20 09:20:20;;;;;;;7.57;2.50;;;;;;;20.14;67.71;101546.13;5010043;28;20022;-40
2021/08/20 09:22:46;;;;;;;9.13;2.20;;;;;;;20.08;67.75;101557.97;5013102;28;20026;-39
2021/08/20 09:25:37;;;;;;;5.15;2.00;;;;;;;20.06;67.61;101546.44;5013568;28;20026;-40
2021/08/20 09:28:15;;;;;;;9.68;2.28;;;;;;;19.98;67.92;101557.66;5013726;28;20032;-39
2021/08/20 09:30:42;;;;;;;4.97;2.20;;;;;;;19.81;68.03;101555.53;5013323;28;20045;-39
2021/08/20 09:33:12;;;;;;;7.63;2.33;;;;;;;19.80;68.69;101556.59;5014232;28;20332;-40
2021/08/20 09:35:38;;;;;;;7.20;2.22;;;;;;;19.81;69.02;101561.00;5014066;28;20811;-39
2021/08/20 09:38:09;;;;;;;5.35;2.33;;;;;;;19.74;69.44;101568.41;5014272;28;20033;-39
2021/08/20 09:40:34;;;;;;;7.55;2.50;;;;;;;19.90;68.83;101566.97;5013931;28;20046;-38
2021/08/20 09:43:12;;;;;;;6.32;2.03;;;;;;;20.56;67.79;101562.66;5013666;28;20493;-39
2021/08/20 09:45:38;;;;;;;6.00;2.35;;;;;;;20.99;65.79;101564.38;5014096;28;20026;-38
2021/08/20 09:48:05;;;;;;;7.18;2.03;;;;;;;21.27;64.66;101570.03;5013410;28;20083;-40
2021/08/20 09:50:43;;;;;;;6.90;2.55;;;;;;;21.15;64.74;101569.16;5014357;28;20040;-40
2021/08/20 09:53:13;;;;;;;6.85;2.72;;;;;;;20.86;65.97;101579.09;5012354;28;20609;-40
2021/08/20 09:55:40;;;;;;;6.88;2.40;;;;;;;20.45;66.69;101579.81;5013376;28;20393;-40
2021/08/20 09:58:11;;;;;;;10.75;3.13;;;;;;;20.17;67.46;101583.94;5012182;28;20125;-40
2021/08/20 10:00:36;;;;;;;6.38;2.78;;;;;;;19.73;69.03;101583.13;5012652;28;20032;-40
2021/08/20 10:03:04;;;;;;;6.65;2.70;;;;;;;19.79;69.10;101571.31;5014041;28;20026;-41
2021/08/20 10:05:30;;;;;;;6.93;2.85;;;;;;;20.65;67.28;101576.88;5013604;28;20030;-40
2021/08/20 10:07:55;;;;;;;5.95;2.63;;;;;;;21.42;63.68;101579.72;5027065;28;20021;-40
2021/08/20 10:10:21;;;;;;;10.65;2.65;;;;;;;22.30;60.73;101580.63;5013142;28;20378;-40
2021/08/20 10:12:46;;;;;;;8.27;2.95;;;;;;;22.77;61.73;101577.72;5013018;28;20029;-40
2021/08/20 10:15:12;;;;;;;4.43;2.38;;;;;;;23.07;59.28;101593.97;5012383;28;20331;-40
2021/08/20 10:17:38;;;;;;;4.65;2.30;;;;;;;23.41;57.84;101592.09;5013095;28;20037;-39
2021/08/20 10:20:04;;;;;;;6.07;2.38;;;;;;;23.05;58.34;101592.56;5009683;28;20612;-40
2021/08/20 10:22:30;;;;;;;7.05;2.40;;;;;;;22.64;59.40;101580.78;5012861;28;20034;-40
2021/08/20 10:24:56;;;;;;;9.95;2.38;;;;;;;22.49;61.01;101579.41;5013420;28;20457;-39
2021/08/20 10:27:22;;;;;;;5.22;2.65;;;;;;;21.98;61.66;101583.75;5013702;28;20022;-39
2021/08/20 10:29:49;;;;;;;5.97;2.67;;;;;;;21.67;62.53;101588.56;5013379;28;20315;-39
2021/08/20 10:32:15;;;;;;;7.05;2.40;;;;;;;22.07;61.92;101585.06;5011306;28;20099;-41
2021/08/20 10:34:41;;;;;;;8.20;2.80;;;;;;;22.47;60.42;101597.19;5006712;28;20030;-37
2021/08/20 10:37:16;;;;;;;5.07;2.08;;;;;;;22.69;58.87;101589.94;5004214;28;20033;-40
2021/08/20 10:39:46;;;;;;;4.55;2.55;;;;;;;22.79;58.08;101589.31;5012350;28;20123;-40
2021/08/20 10:42:13;;;;;;;5.45;2.38;;;;;;;22.50;59.71;101591.22;5012617;28;20083;-40
2021/08/20 10:44:41;;;;;;;7.40;2.80;;;;;;;22.26;60.42;101595.94;5011602;28;20416;-40
2021/08/20 10:47:07;;;;;;;7.40;2.88;;;;;;;22.37;60.32;101602.47;5012981;28;20284;-40
2021/08/20 10:49:36;;;;;;;8.50;3.00;;;;;;;22.07;61.07;101597.97;5013211;28;20385;-41
2021/08/20 10:52:02;;;;;;;7.05;2.80;;;;;;;22.53;60.63;101593.47;5012943;28;20064;-40
2021/08/20 10:54:31;;;;;;;6.78;2.53;;;;;;;22.97;58.60;101597.38;5014339;28;20117;-40
2021/08/20 10:56:59;;;;;;;7.07;2.63;;;;;;;22.94;59.08;101592.34;5030223;28;20517;-40
2021/08/20 10:59:47;;;;;;;7.97;3.00;;;;;;;23.32;58.50;101598.25;5016467;28;20045;-40
2021/08/20 11:02:19;;;;;;;8.55;2.80;;;;;;;23.72;56.84;101597.25;5011673;28;20081;-41
2021/08/20 11:05:02;;;;;;;6.20;2.85;;;;;;;23.59;57.79;101603.91;5011003;28;20363;-41
2021/08/20 11:07:42;;;;;;;5.63;2.90;;;;;;;22.81;58.08;101591.81;5012292;28;20034;-39
2021/08/20 11:10:08;;;;;;;7.35;2.97;;;;;;;22.53;59.69;101594.28;5026876;28;20037;-39
2021/08/20 11:12:49;;;;;;;9.20;3.63;;;;;;;22.38;61.02;101593.13;5032474;28;20463;-40